»·PEaware :: SWA2131 KLAS-KOAK

SWA2131 :: KLAS-KOAK

FLIGHT INFORMATION

Flight Status: Arrived
Operator:
Southwest Airlines
More flights by this operator :: More flights under this callsign
Pilot: Vian I. (19867)
Aircraft: BOEING 737-800
(B738)
More flights by this aircraft type
Origin: KLAS McCarran Intl
United States
Destination: KOAK Metro Oakland Intl
United States
More flights between these airports :: More routes between these airports
Route: SHEAD1 KENNO RUSME OAKES2
File this flight plan on PilotEdge
Remarks: PBN / A1B1C1D1S1S2 DOF / 180730 REG / XPB738 EET / KZOA0025 OPR / WN PER / C RMK / TCAS SIMBRIEF
Altitude:
(Current/Filed)
40,000ft
Speed:
(Current/Filed)
448kts
Departed: 30-Jul-18 11:08 AM
Arrived: 30-Jul-18 12:17 PM
Distance/Time
Traveled:
353nm/1:09
Distance/Time
To Go:
Arrived

Flight Plot

Page will automatically refresh every two minutes.

Flight plan parsing failed; only flown route is shown


Map Options




Map Legend


Flown Route
Filed Route
Departure Airport
Arrival Airport
Navaid (VOR, NDB)
Fix

Horizontal Profiles

Position Reports

Time Latitude Longitude Heading Altitude Ground
Speed
30-Jul-18 10:52 36.082415 -115.150561 319 2122ft 0kts
30-Jul-18 10:53 36.082415 -115.150561 319 2122ft 0kts
30-Jul-18 10:54 36.082415 -115.150561 319 2122ft 0kts
30-Jul-18 10:55 36.082415 -115.150561 319 2122ft 0kts
30-Jul-18 10:56 36.082415 -115.150561 319 2122ft 0kts
30-Jul-18 10:57 36.082415 -115.150561 319 2122ft 0kts
30-Jul-18 10:58 36.082415 -115.150561 319 2122ft 0kts
30-Jul-18 10:59 36.082264 -115.150398 318 2122ft 2kts
30-Jul-18 11:00 36.082116 -115.149842 231 2122ft 1kts
30-Jul-18 11:01 36.082171 -115.149773 225 2122ft 0kts
30-Jul-18 11:02 36.082135 -115.149818 225 2122ft 3kts
30-Jul-18 11:03 36.080294 -115.151903 198 2122ft 10kts
30-Jul-18 11:04 36.079683 -115.152007 182 2122ft 3kts
30-Jul-18 11:05 36.078047 -115.156128 271 2122ft 21kts
30-Jul-18 11:06 36.077872 -115.161038 225 2122ft 13kts
30-Jul-18 11:07 36.077411 -115.161237 183 2122ft 0kts
30-Jul-18 11:08 36.076446 -115.160095 82 2122ft 3kts
30-Jul-18 11:09 36.076537 -115.135119 84 2616ft 171kts
30-Jul-18 11:10 36.076098 -115.063875 91 4929ft 258kts
30-Jul-18 11:11 36.067546 -114.970488 118 7948ft 300kts
30-Jul-18 11:12 35.997335 -114.914381 162 11560ft 328kts
30-Jul-18 11:13 35.915274 -114.954999 224 15013ft 353kts
30-Jul-18 11:14 35.850393 -115.037010 227 18382ft 361kts
30-Jul-18 11:15 35.827677 -115.156687 273 21661ft 380kts
30-Jul-18 11:16 35.838946 -115.287852 273 23127ft 395kts
30-Jul-18 11:17 35.850465 -115.422032 273 26188ft 397kts
30-Jul-18 11:18 35.861860 -115.557728 273 28666ft 406kts
30-Jul-18 11:19 35.872911 -115.691392 273 31276ft 402kts
30-Jul-18 11:20 35.883712 -115.824407 273 33911ft 389kts
30-Jul-18 11:21 35.900359 -115.954684 290 35942ft 388kts
30-Jul-18 11:22 35.969208 -116.057165 313 37537ft 396kts
30-Jul-18 11:23 36.049485 -116.149093 313 38878ft 395kts
30-Jul-18 11:24 36.128458 -116.240000 313 40003ft 395kts
30-Jul-18 11:25 36.211040 -116.335582 313 40128ft 422kts
30-Jul-18 11:26 36.298674 -116.437302 313 40115ft 437kts
30-Jul-18 11:27 36.386813 -116.539892 313 40116ft 436kts
30-Jul-18 11:28 36.474690 -116.642561 313 40114ft 436kts
30-Jul-18 11:29 36.562057 -116.744771 315 40107ft 437kts
30-Jul-18 11:30 36.664148 -116.825627 325 40119ft 442kts
30-Jul-18 11:31 36.768423 -116.904331 325 40118ft 443kts
30-Jul-18 11:32 36.873789 -116.984474 325 40174ft 446kts
30-Jul-18 11:33 36.979756 -117.065464 324 40303ft 451kts
30-Jul-18 11:34 37.085867 -117.146900 324 40303ft 451kts
30-Jul-18 11:35 37.191316 -117.228056 324 40298ft 449kts
30-Jul-18 11:36 37.297678 -117.310603 321 40296ft 449kts
30-Jul-18 11:37 37.392632 -117.409749 315 40282ft 445kts
30-Jul-18 11:38 37.479744 -117.517248 298 40259ft 434kts
30-Jul-18 11:39 37.515545 -117.656592 277 40230ft 425kts
30-Jul-18 11:40 37.536491 -117.800542 277 40209ft 424kts
30-Jul-18 11:41 37.557552 -117.945649 277 40192ft 424kts
30-Jul-18 11:42 37.578595 -118.091409 277 40191ft 424kts
30-Jul-18 11:43 37.599532 -118.237490 277 40191ft 424kts
30-Jul-18 11:44 37.620264 -118.383291 277 40233ft 424kts
30-Jul-18 11:45 37.640912 -118.529769 277 40369ft 425kts
30-Jul-18 11:46 37.660948 -118.673146 276 40422ft 424kts
30-Jul-18 11:47 37.680611 -118.815521 276 40423ft 424kts
30-Jul-18 11:48 37.700645 -118.961788 275 40423ft 429kts
30-Jul-18 11:49 37.720656 -119.109263 275 40423ft 433kts
30-Jul-18 11:50 37.740599 -119.257579 275 40422ft 432kts
30-Jul-18 11:51 37.760472 -119.406822 275 40421ft 432kts
30-Jul-18 11:52 37.780177 -119.556241 275 40396ft 432kts
30-Jul-18 11:53 37.799518 -119.704388 274 40156ft 431kts
30-Jul-18 11:54 37.818191 -119.849259 274 39145ft 442kts
30-Jul-18 11:55 37.836426 -119.991489 274 36919ft 425kts
30-Jul-18 11:56 37.855006 -120.138127 274 33250ft 429kts
30-Jul-18 11:57 37.873878 -120.288932 275 30005ft 438kts
30-Jul-18 11:58 37.868257 -120.435252 254 27470ft 414kts
30-Jul-18 11:59 37.844044 -120.577142 255 24913ft 411kts
30-Jul-18 12:00 37.820849 -120.712798 254 22500ft 397kts
30-Jul-18 12:01 37.800259 -120.832684 255 20377ft 387kts
30-Jul-18 12:02 37.777890 -120.961360 255 18475ft 378kts
30-Jul-18 12:03 37.755907 -121.087058 256 16692ft 357kts
30-Jul-18 12:04 37.735169 -121.206144 256 14999ft 341kts
30-Jul-18 12:05 37.712067 -121.321505 251 13352ft 338kts
30-Jul-18 12:06 37.682892 -121.432324 251 11731ft 331kts
30-Jul-18 12:07 37.654850 -121.539306 251 10187ft 314kts
30-Jul-18 12:08 37.628324 -121.640500 252 8713ft 293kts
30-Jul-18 12:09 37.611790 -121.732235 264 7435ft 272kts
30-Jul-18 12:10 37.605965 -121.821484 266 6203ft 274kts
30-Jul-18 12:11 37.606401 -121.915606 270 4895ft 274kts
30-Jul-18 12:12 37.609914 -122.004169 275 3669ft 239kts
30-Jul-18 12:13 37.618015 -122.072561 289 2721ft 180kts
30-Jul-18 12:14 37.638192 -122.117853 309 1922ft 138kts
30-Jul-18 12:15 37.661508 -122.154119 308 1227ft 133kts
30-Jul-18 12:16 37.684927 -122.189425 309 534ft 130kts
30-Jul-18 12:17 37.707300 -122.223049 311 15ft 103kts
30-Jul-18 12:18 37.715037 -122.231181 55 14ft 14kts
30-Jul-18 12:19 37.712130 -122.226357 127 14ft 22kts
30-Jul-18 12:20 37.712776 -122.221572 129 14ft 16kts
30-Jul-18 12:21 37.709352 -122.216116 125 14ft 12kts
30-Jul-18 12:22 37.711261 -122.213666 32 14ft 0kts
30-Jul-18 12:23 37.711261 -122.213666 32 14ft 0kts

Navigation Log

Ident Type
Flight plan parsing failed, navigation log unavailable